sensor_id;sensor_type;location;lat;lon;timestamp;P1;durP1;ratioP1;P2;durP2;ratioP2
35602;SDS011;21725;50.836;4.368;2023-12-22T00:00:22;22.42;;;4.65;;
35602;SDS011;21725;50.836;4.368;2023-12-22T00:03:23;20.05;;;3.65;;
35602;SDS011;21725;50.836;4.368;2023-12-22T00:06:24;16.90;;;4.95;;
35602;SDS011;21725;50.836;4.368;2023-12-22T00:09:24;18.95;;;5.30;;
35602;SDS011;21725;50.836;4.368;2023-12-22T00:12:25;12.93;;;3.33;;
35602;SDS011;21725;50.836;4.368;2023-12-22T00:15:26;13.88;;;4.18;;
35602;SDS011;21725;50.836;4.368;2023-12-22T00:18:27;17.83;;;4.80;;
35602;SDS011;21725;50.836;4.368;2023-12-22T00:21:28;18.65;;;4.13;;
35602;SDS011;21725;50.836;4.368;2023-12-22T00:24:29;13.00;;;3.92;;
35602;SDS011;21725;50.836;4.368;2023-12-22T00:27:30;14.32;;;3.17;;
35602;SDS011;21725;50.836;4.368;2023-12-22T00:30:31;15.60;;;2.78;;
35602;SDS011;21725;50.836;4.368;2023-12-22T00:33:31;8.63;;;1.73;;
35602;SDS011;21725;50.836;4.368;2023-12-22T00:36:32;17.95;;;3.97;;
35602;SDS011;21725;50.836;4.368;2023-12-22T00:39:33;9.63;;;2.85;;
35602;SDS011;21725;50.836;4.368;2023-12-22T00:42:33;11.80;;;2.92;;
35602;SDS011;21725;50.836;4.368;2023-12-22T00:45:34;13.95;;;3.22;;
35602;SDS011;21725;50.836;4.368;2023-12-22T00:48:35;12.57;;;3.30;;
35602;SDS011;21725;50.836;4.368;2023-12-22T00:51:36;15.93;;;3.22;;
35602;SDS011;21725;50.836;4.368;2023-12-22T00:54:36;12.45;;;3.55;;
35602;SDS011;21725;50.836;4.368;2023-12-22T00:57:37;23.60;;;5.25;;
35602;SDS011;21725;50.836;4.368;2023-12-22T01:00:38;17.55;;;3.85;;
35602;SDS011;21725;50.836;4.368;2023-12-22T01:03:39;20.33;;;4.07;;
35602;SDS011;21725;50.836;4.368;2023-12-22T01:06:39;20.35;;;5.10;;
35602;SDS011;21725;50.836;4.368;2023-12-22T01:09:40;18.50;;;4.60;;
35602;SDS011;21725;50.836;4.368;2023-12-22T01:12:42;21.70;;;5.15;;
35602;SDS011;21725;50.836;4.368;2023-12-22T01:15:43;24.05;;;6.38;;
35602;SDS011;21725;50.836;4.368;2023-12-22T01:18:43;25.45;;;4.00;;
35602;SDS011;21725;50.836;4.368;2023-12-22T01:21:44;15.52;;;3.83;;
35602;SDS011;21725;50.836;4.368;2023-12-22T01:24:45;13.73;;;3.97;;
35602;SDS011;21725;50.836;4.368;2023-12-22T01:27:45;18.13;;;4.70;;
35602;SDS011;21725;50.836;4.368;2023-12-22T01:30:47;15.75;;;6.63;;
35602;SDS011;21725;50.836;4.368;2023-12-22T01:33:48;20.08;;;4.82;;
35602;SDS011;21725;50.836;4.368;2023-12-22T01:36:49;11.50;;;3.10;;
35602;SDS011;21725;50.836;4.368;2023-12-22T01:39:49;20.15;;;5.43;;
35602;SDS011;21725;50.836;4.368;2023-12-22T01:42:50;18.95;;;5.30;;
35602;SDS011;21725;50.836;4.368;2023-12-22T01:45:52;23.38;;;4.97;;
35602;SDS011;21725;50.836;4.368;2023-12-22T01:48:56;17.13;;;4.30;;
35602;SDS011;21725;50.836;4.368;2023-12-22T01:51:56;19.45;;;2.97;;
35602;SDS011;21725;50.836;4.368;2023-12-22T01:54:57;15.88;;;3.72;;
35602;SDS011;21725;50.836;4.368;2023-12-22T01:57:58;17.23;;;4.13;;
35602;SDS011;21725;50.836;4.368;2023-12-22T02:01:00;17.02;;;4.30;;
35602;SDS011;21725;50.836;4.368;2023-12-22T02:04:02;14.02;;;4.50;;
35602;SDS011;21725;50.836;4.368;2023-12-22T02:07:04;14.38;;;4.07;;
35602;SDS011;21725;50.836;4.368;2023-12-22T02:10:08;18.85;;;3.75;;
35602;SDS011;21725;50.836;4.368;2023-12-22T02:13:10;22.15;;;5.60;;
35602;SDS011;21725;50.836;4.368;2023-12-22T02:16:20;13.52;;;5.72;;
35602;SDS011;21725;50.836;4.368;2023-12-22T02:19:42;26.60;;;5.63;;
35602;SDS011;21725;50.836;4.368;2023-12-22T02:22:44;15.35;;;5.72;;
35602;SDS011;21725;50.836;4.368;2023-12-22T02:25:45;21.95;;;4.43;;
35602;SDS011;21725;50.836;4.368;2023-12-22T02:28:46;20.33;;;4.32;;
35602;SDS011;21725;50.836;4.368;2023-12-22T02:31:47;15.13;;;3.83;;
35602;SDS011;21725;50.836;4.368;2023-12-22T02:34:52;16.52;;;3.47;;
35602;SDS011;21725;50.836;4.368;2023-12-22T02:37:56;13.73;;;4.18;;
35602;SDS011;21725;50.836;4.368;2023-12-22T02:40:58;9.65;;;3.15;;
35602;SDS011;21725;50.836;4.368;2023-12-22T02:44:00;11.88;;;3.90;;
35602;SDS011;21725;50.836;4.368;2023-12-22T02:47:01;11.85;;;3.80;;
35602;SDS011;21725;50.836;4.368;2023-12-22T02:50:02;5.68;;;1.75;;
35602;SDS011;21725;50.836;4.368;2023-12-22T02:53:04;8.35;;;2.22;;
35602;SDS011;21725;50.836;4.368;2023-12-22T02:56:04;14.05;;;3.22;;
35602;SDS011;21725;50.836;4.368;2023-12-22T02:59:05;7.68;;;2.45;;
35602;SDS011;21725;50.836;4.368;2023-12-22T03:02:06;13.40;;;2.72;;
35602;SDS011;21725;50.836;4.368;2023-12-22T03:05:07;18.13;;;4.53;;
35602;SDS011;21725;50.836;4.368;2023-12-22T03:08:08;15.98;;;3.85;;
35602;SDS011;21725;50.836;4.368;2023-12-22T03:11:08;17.08;;;3.85;;
35602;SDS011;21725;50.836;4.368;2023-12-22T03:14:09;16.27;;;3.35;;
35602;SDS011;21725;50.836;4.368;2023-12-22T03:17:10;18.50;;;3.50;;
35602;SDS011;21725;50.836;4.368;2023-12-22T03:20:11;12.70;;;3.03;;
35602;SDS011;21725;50.836;4.368;2023-12-22T03:23:12;20.35;;;5.13;;
35602;SDS011;21725;50.836;4.368;2023-12-22T03:26:12;16.42;;;4.18;;
35602;SDS011;21725;50.836;4.368;2023-12-22T03:29:13;20.15;;;5.30;;
35602;SDS011;21725;50.836;4.368;2023-12-22T03:32:14;16.42;;;3.97;;
35602;SDS011;21725;50.836;4.368;2023-12-22T03:35:15;19.58;;;3.75;;
35602;SDS011;21725;50.836;4.368;2023-12-22T03:38:15;25.42;;;5.85;;
35602;SDS011;21725;50.836;4.368;2023-12-22T03:41:16;17.77;;;5.65;;
35602;SDS011;21725;50.836;4.368;2023-12-22T03:44:17;17.55;;;3.63;;
35602;SDS011;21725;50.836;4.368;2023-12-22T03:47:17;21.63;;;6.82;;
35602;SDS011;21725;50.836;4.368;2023-12-22T03:50:18;14.77;;;2.78;;
35602;SDS011;21725;50.836;4.368;2023-12-22T03:53:19;9.93;;;2.75;;
35602;SDS011;21725;50.836;4.368;2023-12-22T03:56:20;19.23;;;4.72;;
35602;SDS011;21725;50.836;4.368;2023-12-22T03:59:20;15.77;;;3.88;;
35602;SDS011;21725;50.836;4.368;2023-12-22T04:02:21;15.02;;;3.80;;
35602;SDS011;21725;50.836;4.368;2023-12-22T04:05:22;12.57;;;3.63;;
35602;SDS011;21725;50.836;4.368;2023-12-22T04:08:23;13.07;;;3.75;;
35602;SDS011;21725;50.836;4.368;2023-12-22T04:11:23;22.08;;;4.72;;
35602;SDS011;21725;50.836;4.368;2023-12-22T04:14:24;17.67;;;4.80;;
35602;SDS011;21725;50.836;4.368;2023-12-22T04:17:25;15.48;;;3.92;;
35602;SDS011;21725;50.836;4.368;2023-12-22T04:20:25;16.55;;;4.03;;
35602;SDS011;21725;50.836;4.368;2023-12-22T04:23:26;13.48;;;4.60;;
35602;SDS011;21725;50.836;4.368;2023-12-22T04:26:28;26.02;;;6.00;;
35602;SDS011;21725;50.836;4.368;2023-12-22T04:29:30;31.05;;;6.47;;
35602;SDS011;21725;50.836;4.368;2023-12-22T04:32:30;17.70;;;5.57;;
35602;SDS011;21725;50.836;4.368;2023-12-22T04:35:31;24.27;;;5.47;;
35602;SDS011;21725;50.836;4.368;2023-12-22T04:38:32;18.50;;;5.78;;
35602;SDS011;21725;50.836;4.368;2023-12-22T04:41:32;20.30;;;4.90;;
35602;SDS011;21725;50.836;4.368;2023-12-22T04:44:33;17.60;;;4.60;;
35602;SDS011;21725;50.836;4.368;2023-12-22T04:47:34;19.55;;;6.82;;
35602;SDS011;21725;50.836;4.368;2023-12-22T04:50:35;30.85;;;5.43;;
35602;SDS011;21725;50.836;4.368;2023-12-22T04:53:36;26.40;;;6.60;;
35602;SDS011;21725;50.836;4.368;2023-12-22T04:56:36;27.70;;;4.35;;
35602;SDS011;21725;50.836;4.368;2023-12-22T04:59:37;18.67;;;5.18;;
35602;SDS011;21725;50.836;4.368;2023-12-22T05:02:38;24.38;;;5.65;;
35602;SDS011;21725;50.836;4.368;2023-12-22T05:05:38;24.80;;;5.93;;
35602;SDS011;21725;50.836;4.368;2023-12-22T05:08:39;20.75;;;5.55;;
35602;SDS011;21725;50.836;4.368;2023-12-22T05:11:40;24.25;;;6.47;;
35602;SDS011;21725;50.836;4.368;2023-12-22T05:14:41;50.20;;;7.88;;
35602;SDS011;21725;50.836;4.368;2023-12-22T05:17:42;23.15;;;7.43;;
35602;SDS011;21725;50.836;4.368;2023-12-22T05:20:43;25.02;;;5.40;;
35602;SDS011;21725;50.836;4.368;2023-12-22T05:23:45;35.20;;;7.68;;
35602;SDS011;21725;50.836;4.368;2023-12-22T05:26:45;18.52;;;5.22;;
35602;SDS011;21725;50.836;4.368;2023-12-22T05:29:46;34.58;;;6.50;;
35602;SDS011;21725;50.836;4.368;2023-12-22T05:32:47;24.50;;;7.45;;
35602;SDS011;21725;50.836;4.368;2023-12-22T05:35:48;42.00;;;8.60;;
35602;SDS011;21725;50.836;4.368;2023-12-22T05:38:48;19.90;;;5.82;;
35602;SDS011;21725;50.836;4.368;2023-12-22T05:41:49;32.78;;;5.60;;
35602;SDS011;21725;50.836;4.368;2023-12-22T05:44:50;22.77;;;6.10;;
35602;SDS011;21725;50.836;4.368;2023-12-22T05:47:51;24.33;;;5.70;;
35602;SDS011;21725;50.836;4.368;2023-12-22T05:50:51;27.50;;;5.97;;
35602;SDS011;21725;50.836;4.368;2023-12-22T05:53:52;29.20;;;4.97;;
35602;SDS011;21725;50.836;4.368;2023-12-22T05:56:56;31.27;;;5.75;;
35602;SDS011;21725;50.836;4.368;2023-12-22T05:59:56;23.08;;;6.00;;
35602;SDS011;21725;50.836;4.368;2023-12-22T06:02:57;25.15;;;7.93;;
35602;SDS011;21725;50.836;4.368;2023-12-22T06:05:58;25.42;;;6.05;;
35602;SDS011;21725;50.836;4.368;2023-12-22T06:08:58;16.38;;;5.35;;
35602;SDS011;21725;50.836;4.368;2023-12-22T06:11:59;22.63;;;5.35;;
35602;SDS011;21725;50.836;4.368;2023-12-22T06:15:00;12.82;;;3.10;;
35602;SDS011;21725;50.836;4.368;2023-12-22T06:18:02;28.83;;;6.43;;
35602;SDS011;21725;50.836;4.368;2023-12-22T06:21:03;26.52;;;8.35;;
35602;SDS011;21725;50.836;4.368;2023-12-22T06:24:04;24.15;;;8.23;;
35602;SDS011;21725;50.836;4.368;2023-12-22T06:27:05;20.63;;;6.95;;
35602;SDS011;21725;50.836;4.368;2023-12-22T06:30:07;19.73;;;4.68;;
35602;SDS011;21725;50.836;4.368;2023-12-22T06:33:08;22.17;;;4.65;;
35602;SDS011;21725;50.836;4.368;2023-12-22T06:36:17;19.98;;;4.43;;
35602;SDS011;21725;50.836;4.368;2023-12-22T06:39:21;17.65;;;3.30;;
35602;SDS011;21725;50.836;4.368;2023-12-22T06:42:22;15.02;;;4.05;;
35602;SDS011;21725;50.836;4.368;2023-12-22T06:45:23;11.15;;;3.38;;
35602;SDS011;21725;50.836;4.368;2023-12-22T06:48:23;14.95;;;3.67;;
35602;SDS011;21725;50.836;4.368;2023-12-22T06:51:28;15.00;;;3.42;;
35602;SDS011;21725;50.836;4.368;2023-12-22T06:54:30;14.20;;;3.67;;
35602;SDS011;21725;50.836;4.368;2023-12-22T06:57:31;9.38;;;2.25;;
35602;SDS011;21725;50.836;4.368;2023-12-22T07:00:32;13.18;;;3.15;;
35602;SDS011;21725;50.836;4.368;2023-12-22T07:03:32;10.32;;;2.47;;
35602;SDS011;21725;50.836;4.368;2023-12-22T07:06:33;11.27;;;2.60;;
35602;SDS011;21725;50.836;4.368;2023-12-22T07:09:35;7.85;;;2.58;;
35602;SDS011;21725;50.836;4.368;2023-12-22T07:12:35;20.77;;;5.22;;
35602;SDS011;21725;50.836;4.368;2023-12-22T07:15:36;8.07;;;2.70;;
35602;SDS011;21725;50.836;4.368;2023-12-22T07:18:37;8.55;;;3.25;;
35602;SDS011;21725;50.836;4.368;2023-12-22T07:21:38;10.45;;;3.22;;
35602;SDS011;21725;50.836;4.368;2023-12-22T07:24:40;12.57;;;2.83;;
35602;SDS011;21725;50.836;4.368;2023-12-22T07:27:41;10.10;;;2.85;;
35602;SDS011;21725;50.836;4.368;2023-12-22T07:30:41;12.68;;;3.88;;
35602;SDS011;21725;50.836;4.368;2023-12-22T07:33:42;10.88;;;3.70;;
35602;SDS011;21725;50.836;4.368;2023-12-22T07:36:44;11.25;;;3.33;;
35602;SDS011;21725;50.836;4.368;2023-12-22T07:39:44;9.10;;;3.17;;
35602;SDS011;21725;50.836;4.368;2023-12-22T07:42:45;11.55;;;2.72;;
35602;SDS011;21725;50.836;4.368;2023-12-22T07:45:46;9.73;;;5.07;;
35602;SDS011;21725;50.836;4.368;2023-12-22T07:48:48;10.07;;;2.67;;
35602;SDS011;21725;50.836;4.368;2023-12-22T07:51:49;13.27;;;4.30;;
35602;SDS011;21725;50.836;4.368;2023-12-22T07:54:51;10.05;;;3.35;;
35602;SDS011;21725;50.836;4.368;2023-12-22T07:57:52;7.90;;;2.58;;
35602;SDS011;21725;50.836;4.368;2023-12-22T08:00:53;12.10;;;3.30;;
35602;SDS011;21725;50.836;4.368;2023-12-22T08:03:54;7.93;;;3.65;;
35602;SDS011;21725;50.836;4.368;2023-12-22T08:06:54;4.32;;;1.80;;
35602;SDS011;21725;50.836;4.368;2023-12-22T08:09:56;7.32;;;1.75;;
35602;SDS011;21725;50.836;4.368;2023-12-22T08:12:57;2.38;;;1.50;;
35602;SDS011;21725;50.836;4.368;2023-12-22T08:15:57;5.13;;;2.03;;
35602;SDS011;21725;50.836;4.368;2023-12-22T08:18:58;2.15;;;1.35;;
35602;SDS011;21725;50.836;4.368;2023-12-22T08:21:59;8.93;;;2.42;;
35602;SDS011;21725;50.836;4.368;2023-12-22T08:25:00;8.73;;;1.98;;
35602;SDS011;21725;50.836;4.368;2023-12-22T08:28:01;5.22;;;1.73;;
35602;SDS011;21725;50.836;4.368;2023-12-22T08:31:02;6.78;;;1.90;;
35602;SDS011;21725;50.836;4.368;2023-12-22T08:34:06;4.55;;;1.70;;
35602;SDS011;21725;50.836;4.368;2023-12-22T08:37:06;5.18;;;2.17;;
35602;SDS011;21725;50.836;4.368;2023-12-22T08:40:07;5.70;;;2.05;;
35602;SDS011;21725;50.836;4.368;2023-12-22T08:43:08;6.97;;;2.35;;
35602;SDS011;21725;50.836;4.368;2023-12-22T08:46:09;8.98;;;3.05;;
35602;SDS011;21725;50.836;4.368;2023-12-22T08:49:10;7.95;;;3.53;;
35602;SDS011;21725;50.836;4.368;2023-12-22T08:52:11;8.77;;;3.65;;
35602;SDS011;21725;50.836;4.368;2023-12-22T08:55:13;9.82;;;3.38;;
35602;SDS011;21725;50.836;4.368;2023-12-22T08:58:14;9.23;;;3.78;;
35602;SDS011;21725;50.836;4.368;2023-12-22T09:01:15;8.40;;;3.78;;
35602;SDS011;21725;50.836;4.368;2023-12-22T09:04:16;8.00;;;3.85;;
35602;SDS011;21725;50.836;4.368;2023-12-22T09:07:17;12.32;;;6.15;;
35602;SDS011;21725;50.836;4.368;2023-12-22T09:10:19;8.70;;;3.10;;
35602;SDS011;21725;50.836;4.368;2023-12-22T09:13:19;8.30;;;3.13;;
35602;SDS011;21725;50.836;4.368;2023-12-22T09:16:21;7.93;;;2.70;;
35602;SDS011;21725;50.836;4.368;2023-12-22T09:19:22;10.52;;;2.85;;
35602;SDS011;21725;50.836;4.368;2023-12-22T09:22:23;9.77;;;3.08;;
35602;SDS011;21725;50.836;4.368;2023-12-22T09:25:24;14.52;;;4.25;;
35602;SDS011;21725;50.836;4.368;2023-12-22T09:28:26;7.75;;;3.75;;
35602;SDS011;21725;50.836;4.368;2023-12-22T09:31:29;5.80;;;2.45;;
35602;SDS011;21725;50.836;4.368;2023-12-22T09:34:30;13.65;;;5.65;;
35602;SDS011;21725;50.836;4.368;2023-12-22T09:37:31;10.10;;;4.22;;
35602;SDS011;21725;50.836;4.368;2023-12-22T09:40:31;8.98;;;4.72;;
35602;SDS011;21725;50.836;4.368;2023-12-22T09:43:35;7.28;;;3.05;;
35602;SDS011;21725;50.836;4.368;2023-12-22T09:46:37;9.73;;;2.58;;
35602;SDS011;21725;50.836;4.368;2023-12-22T09:49:38;6.43;;;2.15;;
35602;SDS011;21725;50.836;4.368;2023-12-22T09:52:44;10.68;;;3.78;;
35602;SDS011;21725;50.836;4.368;2023-12-22T09:55:46;6.65;;;3.40;;
35602;SDS011;21725;50.836;4.368;2023-12-22T09:58:47;6.38;;;2.08;;
35602;SDS011;21725;50.836;4.368;2023-12-22T10:01:50;5.60;;;2.75;;
35602;SDS011;21725;50.836;4.368;2023-12-22T10:04:52;12.90;;;5.55;;
35602;SDS011;21725;50.836;4.368;2023-12-22T10:07:53;4.45;;;2.30;;
35602;SDS011;21725;50.836;4.368;2023-12-22T10:10:56;10.50;;;3.83;;
35602;SDS011;21725;50.836;4.368;2023-12-22T10:13:57;5.85;;;3.25;;
35602;SDS011;21725;50.836;4.368;2023-12-22T10:17:00;12.32;;;3.38;;
35602;SDS011;21725;50.836;4.368;2023-12-22T10:20:02;5.60;;;2.20;;
35602;SDS011;21725;50.836;4.368;2023-12-22T10:23:04;8.25;;;2.30;;
35602;SDS011;21725;50.836;4.368;2023-12-22T10:26:05;14.88;;;3.38;;
35602;SDS011;21725;50.836;4.368;2023-12-22T10:29:08;7.75;;;2.90;;
35602;SDS011;21725;50.836;4.368;2023-12-22T10:32:08;12.88;;;2.08;;
35602;SDS011;21725;50.836;4.368;2023-12-22T10:35:09;8.70;;;2.83;;
35602;SDS011;21725;50.836;4.368;2023-12-22T10:38:10;7.65;;;3.13;;
35602;SDS011;21725;50.836;4.368;2023-12-22T10:41:11;6.93;;;2.70;;
35602;SDS011;21725;50.836;4.368;2023-12-22T10:44:12;8.02;;;2.05;;
35602;SDS011;21725;50.836;4.368;2023-12-22T10:47:12;12.85;;;5.20;;
35602;SDS011;21725;50.836;4.368;2023-12-22T10:50:13;12.30;;;4.15;;
35602;SDS011;21725;50.836;4.368;2023-12-22T10:53:14;13.70;;;2.95;;
35602;SDS011;21725;50.836;4.368;2023-12-22T10:56:15;7.38;;;3.05;;
35602;SDS011;21725;50.836;4.368;2023-12-22T10:59:16;5.75;;;2.00;;
35602;SDS011;21725;50.836;4.368;2023-12-22T11:02:22;5.32;;;2.20;;
35602;SDS011;21725;50.836;4.368;2023-12-22T11:05:26;8.10;;;2.75;;
35602;SDS011;21725;50.836;4.368;2023-12-22T11:08:28;5.25;;;2.58;;
35602;SDS011;21725;50.836;4.368;2023-12-22T11:11:33;6.28;;;2.88;;
35602;SDS011;21725;50.836;4.368;2023-12-22T11:14:35;8.00;;;2.60;;
35602;SDS011;21725;50.836;4.368;2023-12-22T11:17:36;7.15;;;3.38;;
35602;SDS011;21725;50.836;4.368;2023-12-22T11:20:40;6.70;;;2.20;;
35602;SDS011;21725;50.836;4.368;2023-12-22T11:23:42;5.28;;;2.45;;
35602;SDS011;21725;50.836;4.368;2023-12-22T11:26:45;8.93;;;2.55;;
35602;SDS011;21725;50.836;4.368;2023-12-22T11:29:50;4.55;;;2.17;;
35602;SDS011;21725;50.836;4.368;2023-12-22T11:32:51;8.73;;;2.38;;
35602;SDS011;21725;50.836;4.368;2023-12-22T11:35:55;7.03;;;2.90;;
35602;SDS011;21725;50.836;4.368;2023-12-22T11:38:57;6.80;;;2.10;;
35602;SDS011;21725;50.836;4.368;2023-12-22T11:41:59;5.32;;;2.30;;
35602;SDS011;21725;50.836;4.368;2023-12-22T11:45:00;6.32;;;2.72;;
35602;SDS011;21725;50.836;4.368;2023-12-22T11:48:08;7.03;;;2.28;;
35602;SDS011;21725;50.836;4.368;2023-12-22T11:51:13;6.47;;;2.50;;
35602;SDS011;21725;50.836;4.368;2023-12-22T11:54:48;5.90;;;1.83;;
35602;SDS011;21725;50.836;4.368;2023-12-22T11:57:45;8.05;;;2.78;;
35602;SDS011;21725;50.836;4.368;2023-12-22T12:00:46;5.65;;;2.60;;
35602;SDS011;21725;50.836;4.368;2023-12-22T12:03:53;4.72;;;1.85;;
35602;SDS011;21725;50.836;4.368;2023-12-22T12:07:34;5.18;;;2.80;;
35602;SDS011;21725;50.836;4.368;2023-12-22T12:11:01;4.38;;;2.60;;
35602;SDS011;21725;50.836;4.368;2023-12-22T12:14:06;8.65;;;2.80;;
35602;SDS011;21725;50.836;4.368;2023-12-22T12:17:11;5.70;;;2.47;;
35602;SDS011;21725;50.836;4.368;2023-12-22T12:20:16;7.30;;;2.47;;
35602;SDS011;21725;50.836;4.368;2023-12-22T12:23:17;7.45;;;3.30;;
35602;SDS011;21725;50.836;4.368;2023-12-22T12:26:17;7.28;;;3.10;;
35602;SDS011;21725;50.836;4.368;2023-12-22T12:29:19;6.97;;;3.38;;
35602;SDS011;21725;50.836;4.368;2023-12-22T12:32:22;12.77;;;5.50;;
35602;SDS011;21725;50.836;4.368;2023-12-22T12:35:24;8.02;;;3.22;;
35602;SDS011;21725;50.836;4.368;2023-12-22T12:38:36;3.00;;;2.00;;
35602;SDS011;21725;50.836;4.368;2023-12-22T12:41:42;3.85;;;2.10;;
35602;SDS011;21725;50.836;4.368;2023-12-22T12:44:44;6.88;;;2.00;;
35602;SDS011;21725;50.836;4.368;2023-12-22T12:48:02;5.93;;;2.33;;
35602;SDS011;21725;50.836;4.368;2023-12-22T12:51:04;8.23;;;2.95;;
35602;SDS011;21725;50.836;4.368;2023-12-22T12:54:06;7.72;;;2.30;;
35602;SDS011;21725;50.836;4.368;2023-12-22T12:57:13;4.30;;;1.75;;
35602;SDS011;21725;50.836;4.368;2023-12-22T13:00:26;7.03;;;2.35;;
35602;SDS011;21725;50.836;4.368;2023-12-22T13:03:28;6.63;;;2.05;;
35602;SDS011;21725;50.836;4.368;2023-12-22T13:06:28;8.95;;;2.65;;
35602;SDS011;21725;50.836;4.368;2023-12-22T13:09:32;8.65;;;2.85;;
35602;SDS011;21725;50.836;4.368;2023-12-22T13:12:34;4.25;;;1.40;;
35602;SDS011;21725;50.836;4.368;2023-12-22T13:15:39;6.85;;;2.15;;
35602;SDS011;21725;50.836;4.368;2023-12-22T13:18:41;10.68;;;2.53;;
35602;SDS011;21725;50.836;4.368;2023-12-22T13:21:42;4.00;;;1.55;;
35602;SDS011;21725;50.836;4.368;2023-12-22T13:24:54;9.05;;;2.20;;
35602;SDS011;21725;50.836;4.368;2023-12-22T13:27:55;5.65;;;1.95;;
35602;SDS011;21725;50.836;4.368;2023-12-22T13:30:56;5.22;;;2.22;;
35602;SDS011;21725;50.836;4.368;2023-12-22T13:33:59;5.72;;;1.65;;
35602;SDS011;21725;50.836;4.368;2023-12-22T13:37:02;6.43;;;2.70;;
35602;SDS011;21725;50.836;4.368;2023-12-22T13:40:06;6.22;;;2.58;;
35602;SDS011;21725;50.836;4.368;2023-12-22T13:43:09;9.90;;;2.42;;
35602;SDS011;21725;50.836;4.368;2023-12-22T13:46:10;7.05;;;2.50;;
35602;SDS011;21725;50.836;4.368;2023-12-22T13:49:12;7.22;;;2.45;;
35602;SDS011;21725;50.836;4.368;2023-12-22T13:52:24;9.15;;;3.00;;
35602;SDS011;21725;50.836;4.368;2023-12-22T13:55:26;8.60;;;3.20;;
35602;SDS011;21725;50.836;4.368;2023-12-22T13:58:27;6.65;;;2.30;;
35602;SDS011;21725;50.836;4.368;2023-12-22T14:01:28;7.05;;;2.25;;
35602;SDS011;21725;50.836;4.368;2023-12-22T14:04:29;12.27;;;3.25;;
35602;SDS011;21725;50.836;4.368;2023-12-22T14:07:29;6.80;;;1.40;;
35602;SDS011;21725;50.836;4.368;2023-12-22T14:10:30;7.28;;;1.80;;
35602;SDS011;21725;50.836;4.368;2023-12-22T14:13:31;6.72;;;2.33;;
35602;SDS011;21725;50.836;4.368;2023-12-22T14:16:32;13.75;;;2.75;;
35602;SDS011;21725;50.836;4.368;2023-12-22T14:19:32;5.05;;;2.30;;
35602;SDS011;21725;50.836;4.368;2023-12-22T14:22:33;11.80;;;2.63;;
35602;SDS011;21725;50.836;4.368;2023-12-22T14:25:34;4.43;;;2.00;;
35602;SDS011;21725;50.836;4.368;2023-12-22T14:28:35;6.57;;;1.60;;
35602;SDS011;21725;50.836;4.368;2023-12-22T14:31:36;14.05;;;2.78;;
35602;SDS011;21725;50.836;4.368;2023-12-22T14:34:37;8.52;;;2.35;;
35602;SDS011;21725;50.836;4.368;2023-12-22T14:37:38;8.77;;;2.30;;
35602;SDS011;21725;50.836;4.368;2023-12-22T14:40:39;5.53;;;2.10;;
35602;SDS011;21725;50.836;4.368;2023-12-22T14:43:39;8.18;;;2.40;;
35602;SDS011;21725;50.836;4.368;2023-12-22T14:46:40;7.78;;;3.17;;
35602;SDS011;21725;50.836;4.368;2023-12-22T14:49:41;10.57;;;2.30;;
35602;SDS011;21725;50.836;4.368;2023-12-22T14:52:42;9.18;;;1.60;;
35602;SDS011;21725;50.836;4.368;2023-12-22T14:55:43;6.70;;;2.78;;
35602;SDS011;21725;50.836;4.368;2023-12-22T14:58:44;14.70;;;2.63;;
35602;SDS011;21725;50.836;4.368;2023-12-22T15:01:44;7.53;;;2.70;;
35602;SDS011;21725;50.836;4.368;2023-12-22T15:04:45;3.60;;;1.40;;
35602;SDS011;21725;50.836;4.368;2023-12-22T15:07:46;8.30;;;3.10;;
35602;SDS011;21725;50.836;4.368;2023-12-22T15:10:47;7.90;;;3.45;;
35602;SDS011;21725;50.836;4.368;2023-12-22T15:13:47;7.75;;;2.38;;
35602;SDS011;21725;50.836;4.368;2023-12-22T15:16:48;7.80;;;2.45;;
35602;SDS011;21725;50.836;4.368;2023-12-22T15:19:51;9.80;;;3.22;;
35602;SDS011;21725;50.836;4.368;2023-12-22T15:22:52;8.50;;;4.25;;
35602;SDS011;21725;50.836;4.368;2023-12-22T15:25:53;4.97;;;2.00;;
35602;SDS011;21725;50.836;4.368;2023-12-22T15:28:54;6.63;;;2.10;;
35602;SDS011;21725;50.836;4.368;2023-12-22T15:31:55;9.90;;;2.70;;
35602;SDS011;21725;50.836;4.368;2023-12-22T15:34:59;3.72;;;2.05;;
35602;SDS011;21725;50.836;4.368;2023-12-22T15:38:00;4.80;;;2.40;;
35602;SDS011;21725;50.836;4.368;2023-12-22T15:41:04;6.43;;;2.35;;
35602;SDS011;21725;50.836;4.368;2023-12-22T15:44:05;17.10;;;3.92;;
35602;SDS011;21725;50.836;4.368;2023-12-22T15:47:06;5.50;;;2.60;;
35602;SDS011;21725;50.836;4.368;2023-12-22T15:50:08;5.53;;;2.60;;
35602;SDS011;21725;50.836;4.368;2023-12-22T15:53:09;5.13;;;2.28;;
35602;SDS011;21725;50.836;4.368;2023-12-22T15:56:10;15.10;;;2.83;;
35602;SDS011;21725;50.836;4.368;2023-12-22T15:59:11;6.00;;;2.53;;
35602;SDS011;21725;50.836;4.368;2023-12-22T16:02:12;4.20;;;1.83;;
35602;SDS011;21725;50.836;4.368;2023-12-22T16:05:13;3.80;;;1.55;;
35602;SDS011;21725;50.836;4.368;2023-12-22T16:08:14;12.73;;;2.70;;
35602;SDS011;21725;50.836;4.368;2023-12-22T16:11:18;7.72;;;2.40;;
35602;SDS011;21725;50.836;4.368;2023-12-22T16:14:19;6.40;;;2.38;;
35602;SDS011;21725;50.836;4.368;2023-12-22T16:17:20;4.68;;;1.85;;
35602;SDS011;21725;50.836;4.368;2023-12-22T16:20:21;4.57;;;2.22;;
35602;SDS011;21725;50.836;4.368;2023-12-22T16:23:21;4.30;;;1.38;;
35602;SDS011;21725;50.836;4.368;2023-12-22T16:26:22;6.60;;;2.33;;
35602;SDS011;21725;50.836;4.368;2023-12-22T16:29:23;3.47;;;1.90;;
35602;SDS011;21725;50.836;4.368;2023-12-22T16:32:24;9.95;;;2.75;;
35602;SDS011;21725;50.836;4.368;2023-12-22T16:35:25;8.57;;;2.00;;
35602;SDS011;21725;50.836;4.368;2023-12-22T16:38:25;12.68;;;2.78;;
35602;SDS011;21725;50.836;4.368;2023-12-22T16:41:26;4.88;;;2.30;;
35602;SDS011;21725;50.836;4.368;2023-12-22T16:44:28;5.07;;;1.73;;
35602;SDS011;21725;50.836;4.368;2023-12-22T16:47:28;7.57;;;2.10;;
35602;SDS011;21725;50.836;4.368;2023-12-22T16:50:31;9.75;;;2.50;;
35602;SDS011;21725;50.836;4.368;2023-12-22T16:53:32;7.20;;;2.20;;
35602;SDS011;21725;50.836;4.368;2023-12-22T16:56:32;5.65;;;1.60;;
35602;SDS011;21725;50.836;4.368;2023-12-22T16:59:33;7.55;;;2.85;;
35602;SDS011;21725;50.836;4.368;2023-12-22T17:02:34;5.25;;;1.80;;
35602;SDS011;21725;50.836;4.368;2023-12-22T17:05:35;8.65;;;2.13;;
35602;SDS011;21725;50.836;4.368;2023-12-22T17:08:37;5.63;;;1.90;;
35602;SDS011;21725;50.836;4.368;2023-12-22T17:11:37;8.52;;;2.40;;
35602;SDS011;21725;50.836;4.368;2023-12-22T17:14:38;6.43;;;2.28;;
35602;SDS011;21725;50.836;4.368;2023-12-22T17:17:39;5.70;;;2.67;;
35602;SDS011;21725;50.836;4.368;2023-12-22T17:20:39;7.38;;;3.53;;
35602;SDS011;21725;50.836;4.368;2023-12-22T17:23:40;8.77;;;2.50;;
35602;SDS011;21725;50.836;4.368;2023-12-22T17:26:41;7.03;;;2.33;;
35602;SDS011;21725;50.836;4.368;2023-12-22T17:29:42;6.03;;;2.83;;
35602;SDS011;21725;50.836;4.368;2023-12-22T17:32:42;6.57;;;1.95;;
35602;SDS011;21725;50.836;4.368;2023-12-22T17:35:43;9.57;;;2.22;;
35602;SDS011;21725;50.836;4.368;2023-12-22T17:38:44;7.55;;;2.72;;
35602;SDS011;21725;50.836;4.368;2023-12-22T17:41:45;7.18;;;2.05;;
35602;SDS011;21725;50.836;4.368;2023-12-22T17:44:46;7.05;;;2.00;;
35602;SDS011;21725;50.836;4.368;2023-12-22T17:47:46;5.18;;;1.98;;
35602;SDS011;21725;50.836;4.368;2023-12-22T17:50:47;5.55;;;2.03;;
35602;SDS011;21725;50.836;4.368;2023-12-22T17:53:48;10.05;;;3.60;;
35602;SDS011;21725;50.836;4.368;2023-12-22T17:56:49;11.65;;;3.10;;
35602;SDS011;21725;50.836;4.368;2023-12-22T17:59:49;7.95;;;2.72;;
35602;SDS011;21725;50.836;4.368;2023-12-22T18:02:50;8.02;;;2.40;;
35602;SDS011;21725;50.836;4.368;2023-12-22T18:05:51;16.95;;;3.53;;